sensor_id;sensor_type;location;lat;lon;timestamp;P1;durP1;ratioP1;P2;durP2;ratioP2
31782;SDS011;18351;47.560;9.708;2024-03-02T00:01:51;19.85;;;13.57;;
31782;SDS011;18351;47.560;9.708;2024-03-02T00:04:16;21.65;;;13.73;;
31782;SDS011;18351;47.560;9.708;2024-03-02T00:06:42;23.63;;;15.93;;
31782;SDS011;18351;47.560;9.708;2024-03-02T00:09:08;23.15;;;14.63;;
31782;SDS011;18351;47.560;9.708;2024-03-02T00:11:37;21.42;;;15.73;;
31782;SDS011;18351;47.560;9.708;2024-03-02T00:14:03;27.25;;;16.95;;
31782;SDS011;18351;47.560;9.708;2024-03-02T00:16:31;24.00;;;16.67;;
31782;SDS011;18351;47.560;9.708;2024-03-02T00:19:01;25.58;;;15.95;;
31782;SDS011;18351;47.560;9.708;2024-03-02T00:21:27;26.23;;;17.65;;
31782;SDS011;18351;47.560;9.708;2024-03-02T00:23:55;26.25;;;17.60;;
31782;SDS011;18351;47.560;9.708;2024-03-02T00:26:20;21.40;;;14.60;;
31782;SDS011;18351;47.560;9.708;2024-03-02T00:28:46;19.58;;;13.90;;
31782;SDS011;18351;47.560;9.708;2024-03-02T00:31:12;18.88;;;13.15;;
31782;SDS011;18351;47.560;9.708;2024-03-02T00:33:41;19.48;;;13.93;;
31782;SDS011;18351;47.560;9.708;2024-03-02T00:36:08;18.73;;;13.90;;
31782;SDS011;18351;47.560;9.708;2024-03-02T00:38:39;23.25;;;15.60;;
31782;SDS011;18351;47.560;9.708;2024-03-02T00:41:15;23.25;;;14.52;;
31782;SDS011;18351;47.560;9.708;2024-03-02T00:43:47;17.63;;;12.70;;
31782;SDS011;18351;47.560;9.708;2024-03-02T00:46:22;19.17;;;12.52;;
31782;SDS011;18351;47.560;9.708;2024-03-02T00:48:55;16.90;;;11.88;;
31782;SDS011;18351;47.560;9.708;2024-03-02T00:51:22;17.05;;;12.25;;
31782;SDS011;18351;47.560;9.708;2024-03-02T00:53:49;18.35;;;10.65;;
31782;SDS011;18351;47.560;9.708;2024-03-02T00:56:17;17.45;;;11.65;;
31782;SDS011;18351;47.560;9.708;2024-03-02T00:58:43;16.05;;;11.70;;
31782;SDS011;18351;47.560;9.708;2024-03-02T01:01:08;16.38;;;11.88;;
31782;SDS011;18351;47.560;9.708;2024-03-02T01:03:34;16.83;;;11.65;;
31782;SDS011;18351;47.560;9.708;2024-03-02T01:06:00;17.75;;;11.90;;
31782;SDS011;18351;47.560;9.708;2024-03-02T01:08:26;15.02;;;11.10;;
31782;SDS011;18351;47.560;9.708;2024-03-02T01:10:51;19.50;;;12.05;;
31782;SDS011;18351;47.560;9.708;2024-03-02T01:13:17;12.15;;;9.20;;
31782;SDS011;18351;47.560;9.708;2024-03-02T01:15:42;16.90;;;10.77;;
31782;SDS011;18351;47.560;9.708;2024-03-02T01:18:08;16.30;;;10.20;;
31782;SDS011;18351;47.560;9.708;2024-03-02T01:20:34;15.18;;;10.27;;
31782;SDS011;18351;47.560;9.708;2024-03-02T01:22:59;17.60;;;11.00;;
31782;SDS011;18351;47.560;9.708;2024-03-02T01:25:25;18.13;;;12.73;;
31782;SDS011;18351;47.560;9.708;2024-03-02T01:27:51;31.95;;;18.70;;
31782;SDS011;18351;47.560;9.708;2024-03-02T01:30:16;35.00;;;21.08;;
31782;SDS011;18351;47.560;9.708;2024-03-02T01:32:42;22.90;;;14.48;;
31782;SDS011;18351;47.560;9.708;2024-03-02T01:35:08;22.85;;;15.55;;
31782;SDS011;18351;47.560;9.708;2024-03-02T01:37:33;30.83;;;18.40;;
31782;SDS011;18351;47.560;9.708;2024-03-02T01:39:59;18.88;;;12.57;;
31782;SDS011;18351;47.560;9.708;2024-03-02T01:42:25;19.50;;;12.55;;
31782;SDS011;18351;47.560;9.708;2024-03-02T01:44:51;24.25;;;13.68;;
31782;SDS011;18351;47.560;9.708;2024-03-02T01:47:17;26.90;;;15.73;;
31782;SDS011;18351;47.560;9.708;2024-03-02T01:49:42;27.23;;;16.52;;
31782;SDS011;18351;47.560;9.708;2024-03-02T01:52:08;26.55;;;16.13;;
31782;SDS011;18351;47.560;9.708;2024-03-02T01:54:34;24.15;;;15.10;;
31782;SDS011;18351;47.560;9.708;2024-03-02T01:56:59;19.77;;;13.05;;
31782;SDS011;18351;47.560;9.708;2024-03-02T01:59:25;23.48;;;14.35;;
31782;SDS011;18351;47.560;9.708;2024-03-02T02:01:51;30.83;;;16.88;;
31782;SDS011;18351;47.560;9.708;2024-03-02T02:04:16;25.80;;;16.85;;
31782;SDS011;18351;47.560;9.708;2024-03-02T02:06:43;16.77;;;11.38;;
31782;SDS011;18351;47.560;9.708;2024-03-02T02:09:09;15.38;;;11.52;;
31782;SDS011;18351;47.560;9.708;2024-03-02T02:11:35;15.57;;;11.43;;
31782;SDS011;18351;47.560;9.708;2024-03-02T02:14:00;16.65;;;11.80;;
31782;SDS011;18351;47.560;9.708;2024-03-02T02:16:26;15.90;;;11.77;;
31782;SDS011;18351;47.560;9.708;2024-03-02T02:18:52;14.73;;;10.98;;
31782;SDS011;18351;47.560;9.708;2024-03-02T02:21:17;15.85;;;11.18;;
31782;SDS011;18351;47.560;9.708;2024-03-02T02:23:43;13.75;;;10.15;;
31782;SDS011;18351;47.560;9.708;2024-03-02T02:26:13;13.80;;;9.88;;
31782;SDS011;18351;47.560;9.708;2024-03-02T02:28:39;14.38;;;10.45;;
31782;SDS011;18351;47.560;9.708;2024-03-02T02:31:11;15.93;;;11.18;;
31782;SDS011;18351;47.560;9.708;2024-03-02T02:33:38;17.35;;;12.90;;
31782;SDS011;18351;47.560;9.708;2024-03-02T02:36:05;23.02;;;15.35;;
31782;SDS011;18351;47.560;9.708;2024-03-02T02:38:30;23.45;;;16.98;;
31782;SDS011;18351;47.560;9.708;2024-03-02T02:41:00;29.98;;;21.38;;
31782;SDS011;18351;47.560;9.708;2024-03-02T02:43:26;29.75;;;21.10;;
31782;SDS011;18351;47.560;9.708;2024-03-02T02:45:51;32.33;;;24.27;;
31782;SDS011;18351;47.560;9.708;2024-03-02T02:48:17;35.10;;;23.02;;
31782;SDS011;18351;47.560;9.708;2024-03-02T02:50:42;37.90;;;27.88;;
31782;SDS011;18351;47.560;9.708;2024-03-02T02:53:08;38.10;;;27.08;;
31782;SDS011;18351;47.560;9.708;2024-03-02T02:55:34;39.08;;;26.70;;
31782;SDS011;18351;47.560;9.708;2024-03-02T02:58:05;39.58;;;27.00;;
31782;SDS011;18351;47.560;9.708;2024-03-02T03:00:36;35.95;;;25.75;;
31782;SDS011;18351;47.560;9.708;2024-03-02T03:03:02;37.60;;;25.75;;
31782;SDS011;18351;47.560;9.708;2024-03-02T03:05:28;42.80;;;27.50;;
31782;SDS011;18351;47.560;9.708;2024-03-02T03:07:53;38.50;;;26.95;;
31782;SDS011;18351;47.560;9.708;2024-03-02T03:10:19;40.22;;;27.10;;
31782;SDS011;18351;47.560;9.708;2024-03-02T03:12:47;38.50;;;26.42;;
31782;SDS011;18351;47.560;9.708;2024-03-02T03:15:13;43.03;;;29.92;;
31782;SDS011;18351;47.560;9.708;2024-03-02T03:17:39;40.60;;;26.60;;
31782;SDS011;18351;47.560;9.708;2024-03-02T03:20:05;35.28;;;24.33;;
31782;SDS011;18351;47.560;9.708;2024-03-02T03:22:34;35.22;;;24.08;;
31782;SDS011;18351;47.560;9.708;2024-03-02T03:25:00;34.20;;;21.92;;
31782;SDS011;18351;47.560;9.708;2024-03-02T03:27:26;30.42;;;22.10;;
31782;SDS011;18351;47.560;9.708;2024-03-02T03:29:52;33.38;;;23.40;;
31782;SDS011;18351;47.560;9.708;2024-03-02T03:32:17;34.10;;;23.67;;
31782;SDS011;18351;47.560;9.708;2024-03-02T03:34:43;34.13;;;23.08;;
31782;SDS011;18351;47.560;9.708;2024-03-02T03:37:08;33.22;;;23.17;;
31782;SDS011;18351;47.560;9.708;2024-03-02T03:39:34;31.02;;;22.15;;
31782;SDS011;18351;47.560;9.708;2024-03-02T03:42:03;29.63;;;20.58;;
31782;SDS011;18351;47.560;9.708;2024-03-02T03:44:29;26.92;;;19.58;;
31782;SDS011;18351;47.560;9.708;2024-03-02T03:46:54;30.00;;;21.52;;
31782;SDS011;18351;47.560;9.708;2024-03-02T03:49:20;27.33;;;20.02;;
31782;SDS011;18351;47.560;9.708;2024-03-02T03:51:46;31.35;;;21.08;;
31782;SDS011;18351;47.560;9.708;2024-03-02T03:54:11;30.75;;;20.25;;
31782;SDS011;18351;47.560;9.708;2024-03-02T03:56:37;30.58;;;19.88;;
31782;SDS011;18351;47.560;9.708;2024-03-02T03:59:03;30.17;;;20.73;;
31782;SDS011;18351;47.560;9.708;2024-03-02T04:01:29;30.55;;;20.15;;
31782;SDS011;18351;47.560;9.708;2024-03-02T04:03:55;29.15;;;21.08;;
31782;SDS011;18351;47.560;9.708;2024-03-02T04:06:21;30.23;;;20.73;;
31782;SDS011;18351;47.560;9.708;2024-03-02T04:08:46;32.75;;;21.40;;
31782;SDS011;18351;47.560;9.708;2024-03-02T04:11:11;31.98;;;20.42;;
31782;SDS011;18351;47.560;9.708;2024-03-02T04:13:37;34.25;;;21.63;;
31782;SDS011;18351;47.560;9.708;2024-03-02T04:16:03;31.38;;;22.30;;
31782;SDS011;18351;47.560;9.708;2024-03-02T04:18:30;32.25;;;21.67;;
31782;SDS011;18351;47.560;9.708;2024-03-02T04:20:57;32.75;;;21.70;;
31782;SDS011;18351;47.560;9.708;2024-03-02T04:23:24;30.05;;;21.77;;
31782;SDS011;18351;47.560;9.708;2024-03-02T04:25:50;33.65;;;21.27;;
31782;SDS011;18351;47.560;9.708;2024-03-02T04:28:15;31.05;;;21.67;;
31782;SDS011;18351;47.560;9.708;2024-03-02T04:30:41;31.88;;;20.75;;
31782;SDS011;18351;47.560;9.708;2024-03-02T04:33:07;31.92;;;21.67;;
31782;SDS011;18351;47.560;9.708;2024-03-02T04:35:34;34.80;;;21.75;;
31782;SDS011;18351;47.560;9.708;2024-03-02T04:38:01;33.83;;;21.85;;
31782;SDS011;18351;47.560;9.708;2024-03-02T04:40:26;30.85;;;22.45;;
31782;SDS011;18351;47.560;9.708;2024-03-02T04:42:52;33.97;;;23.10;;
31782;SDS011;18351;47.560;9.708;2024-03-02T04:45:18;34.05;;;22.95;;
31782;SDS011;18351;47.560;9.708;2024-03-02T04:47:43;37.50;;;23.75;;
31782;SDS011;18351;47.560;9.708;2024-03-02T04:50:09;35.10;;;23.15;;
31782;SDS011;18351;47.560;9.708;2024-03-02T04:52:35;35.45;;;23.02;;
31782;SDS011;18351;47.560;9.708;2024-03-02T04:55:01;35.58;;;22.27;;
31782;SDS011;18351;47.560;9.708;2024-03-02T04:57:49;38.03;;;21.42;;
31782;SDS011;18351;47.560;9.708;2024-03-02T05:00:16;34.13;;;22.30;;
31782;SDS011;18351;47.560;9.708;2024-03-02T05:02:42;32.60;;;21.58;;
31782;SDS011;18351;47.560;9.708;2024-03-02T05:05:07;33.45;;;22.55;;
31782;SDS011;18351;47.560;9.708;2024-03-02T05:07:33;32.20;;;20.55;;
31782;SDS011;18351;47.560;9.708;2024-03-02T05:09:58;32.22;;;21.55;;
31782;SDS011;18351;47.560;9.708;2024-03-02T05:12:24;30.80;;;20.83;;
31782;SDS011;18351;47.560;9.708;2024-03-02T05:15:08;32.88;;;22.63;;
31782;SDS011;18351;47.560;9.708;2024-03-02T05:17:41;32.03;;;21.55;;
31782;SDS011;18351;47.560;9.708;2024-03-02T05:20:10;29.50;;;20.67;;
31782;SDS011;18351;47.560;9.708;2024-03-02T05:22:36;29.42;;;20.25;;
31782;SDS011;18351;47.560;9.708;2024-03-02T05:25:02;30.25;;;20.92;;
31782;SDS011;18351;47.560;9.708;2024-03-02T05:27:29;32.70;;;21.95;;
31782;SDS011;18351;47.560;9.708;2024-03-02T05:29:55;32.13;;;21.75;;
31782;SDS011;18351;47.560;9.708;2024-03-02T05:32:21;31.35;;;22.05;;
31782;SDS011;18351;47.560;9.708;2024-03-02T05:34:46;34.03;;;20.55;;
31782;SDS011;18351;47.560;9.708;2024-03-02T05:37:12;34.65;;;22.50;;
31782;SDS011;18351;47.560;9.708;2024-03-02T05:39:38;36.17;;;22.70;;
31782;SDS011;18351;47.560;9.708;2024-03-02T05:42:03;32.42;;;23.20;;
31782;SDS011;18351;47.560;9.708;2024-03-02T05:44:29;35.97;;;22.25;;
31782;SDS011;18351;47.560;9.708;2024-03-02T05:46:55;53.35;;;24.02;;
31782;SDS011;18351;47.560;9.708;2024-03-02T05:49:21;31.90;;;21.42;;
31782;SDS011;18351;47.560;9.708;2024-03-02T05:51:46;35.70;;;22.33;;
31782;SDS011;18351;47.560;9.708;2024-03-02T05:54:12;33.42;;;21.52;;
31782;SDS011;18351;47.560;9.708;2024-03-02T05:56:38;33.95;;;22.75;;
31782;SDS011;18351;47.560;9.708;2024-03-02T05:59:03;34.83;;;21.63;;
31782;SDS011;18351;47.560;9.708;2024-03-02T06:01:46;33.85;;;22.05;;
31782;SDS011;18351;47.560;9.708;2024-03-02T06:04:13;36.42;;;22.38;;
31782;SDS011;18351;47.560;9.708;2024-03-02T06:06:39;36.70;;;23.30;;
31782;SDS011;18351;47.560;9.708;2024-03-02T06:09:06;34.20;;;22.83;;
31782;SDS011;18351;47.560;9.708;2024-03-02T06:11:37;30.65;;;21.15;;
31782;SDS011;18351;47.560;9.708;2024-03-02T06:14:03;32.83;;;21.65;;
31782;SDS011;18351;47.560;9.708;2024-03-02T06:16:30;35.92;;;21.98;;
31782;SDS011;18351;47.560;9.708;2024-03-02T06:18:56;32.40;;;21.70;;
31782;SDS011;18351;47.560;9.708;2024-03-02T06:21:23;34.28;;;22.35;;
31782;SDS011;18351;47.560;9.708;2024-03-02T06:23:48;37.70;;;22.50;;
31782;SDS011;18351;47.560;9.708;2024-03-02T06:26:14;34.15;;;21.42;;
31782;SDS011;18351;47.560;9.708;2024-03-02T06:28:40;34.15;;;22.27;;
31782;SDS011;18351;47.560;9.708;2024-03-02T06:31:05;36.97;;;23.33;;
31782;SDS011;18351;47.560;9.708;2024-03-02T06:33:31;32.55;;;21.98;;
31782;SDS011;18351;47.560;9.708;2024-03-02T06:35:56;35.95;;;22.92;;
31782;SDS011;18351;47.560;9.708;2024-03-02T06:38:22;31.20;;;20.70;;
31782;SDS011;18351;47.560;9.708;2024-03-02T06:40:47;33.17;;;20.70;;
31782;SDS011;18351;47.560;9.708;2024-03-02T06:43:13;28.70;;;19.75;;
31782;SDS011;18351;47.560;9.708;2024-03-02T06:45:38;29.42;;;20.17;;
31782;SDS011;18351;47.560;9.708;2024-03-02T06:48:04;31.83;;;21.42;;
31782;SDS011;18351;47.560;9.708;2024-03-02T06:50:30;32.50;;;20.60;;
31782;SDS011;18351;47.560;9.708;2024-03-02T06:52:56;29.02;;;19.25;;
31782;SDS011;18351;47.560;9.708;2024-03-02T06:55:22;27.85;;;19.42;;
31782;SDS011;18351;47.560;9.708;2024-03-02T06:57:49;29.23;;;19.15;;
31782;SDS011;18351;47.560;9.708;2024-03-02T07:00:15;25.95;;;18.55;;
31782;SDS011;18351;47.560;9.708;2024-03-02T07:02:42;26.90;;;18.30;;
31782;SDS011;18351;47.560;9.708;2024-03-02T07:05:09;25.65;;;17.85;;
31782;SDS011;18351;47.560;9.708;2024-03-02T07:07:35;26.42;;;18.13;;
31782;SDS011;18351;47.560;9.708;2024-03-02T07:10:01;30.15;;;17.92;;
31782;SDS011;18351;47.560;9.708;2024-03-02T07:12:28;26.35;;;17.33;;
31782;SDS011;18351;47.560;9.708;2024-03-02T07:14:53;23.85;;;17.27;;
31782;SDS011;18351;47.560;9.708;2024-03-02T07:17:36;26.60;;;17.48;;
31782;SDS011;18351;47.560;9.708;2024-03-02T07:20:02;27.88;;;18.85;;
31782;SDS011;18351;47.560;9.708;2024-03-02T07:22:31;28.02;;;18.88;;
31782;SDS011;18351;47.560;9.708;2024-03-02T07:24:58;28.40;;;17.98;;
31782;SDS011;18351;47.560;9.708;2024-03-02T07:27:23;27.80;;;20.15;;
31782;SDS011;18351;47.560;9.708;2024-03-02T07:29:49;29.33;;;18.83;;
31782;SDS011;18351;47.560;9.708;2024-03-02T07:32:14;29.88;;;19.85;;
31782;SDS011;18351;47.560;9.708;2024-03-02T07:34:40;25.98;;;18.23;;
31782;SDS011;18351;47.560;9.708;2024-03-02T07:37:05;26.27;;;17.08;;
31782;SDS011;18351;47.560;9.708;2024-03-02T07:39:32;26.27;;;16.90;;
31782;SDS011;18351;47.560;9.708;2024-03-02T07:41:58;28.23;;;18.00;;
31782;SDS011;18351;47.560;9.708;2024-03-02T07:44:25;23.83;;;17.17;;
31782;SDS011;18351;47.560;9.708;2024-03-02T07:46:50;23.77;;;16.55;;
31782;SDS011;18351;47.560;9.708;2024-03-02T07:49:16;26.13;;;17.38;;
31782;SDS011;18351;47.560;9.708;2024-03-02T07:51:42;22.50;;;15.65;;
31782;SDS011;18351;47.560;9.708;2024-03-02T07:54:08;20.10;;;15.38;;
31782;SDS011;18351;47.560;9.708;2024-03-02T07:56:34;21.10;;;13.77;;
31782;SDS011;18351;47.560;9.708;2024-03-02T07:59:00;21.98;;;15.80;;
31782;SDS011;18351;47.560;9.708;2024-03-02T08:01:30;23.00;;;14.57;;
31782;SDS011;18351;47.560;9.708;2024-03-02T08:04:00;22.88;;;16.00;;
31782;SDS011;18351;47.560;9.708;2024-03-02T08:06:28;28.63;;;15.73;;
31782;SDS011;18351;47.560;9.708;2024-03-02T08:08:54;22.30;;;15.13;;
31782;SDS011;18351;47.560;9.708;2024-03-02T08:11:21;22.63;;;15.80;;
31782;SDS011;18351;47.560;9.708;2024-03-02T08:13:47;20.95;;;15.45;;
31782;SDS011;18351;47.560;9.708;2024-03-02T08:16:13;20.20;;;14.73;;
31782;SDS011;18351;47.560;9.708;2024-03-02T08:18:44;26.67;;;14.93;;
31782;SDS011;18351;47.560;9.708;2024-03-02T08:21:13;21.33;;;14.45;;
31782;SDS011;18351;47.560;9.708;2024-03-02T08:23:39;14.80;;;11.35;;
31782;SDS011;18351;47.560;9.708;2024-03-02T08:26:07;14.35;;;11.15;;
31782;SDS011;18351;47.560;9.708;2024-03-02T08:28:35;17.85;;;12.82;;
31782;SDS011;18351;47.560;9.708;2024-03-02T08:31:05;17.95;;;13.02;;
31782;SDS011;18351;47.560;9.708;2024-03-02T08:33:31;17.35;;;12.38;;
31782;SDS011;18351;47.560;9.708;2024-03-02T08:35:57;14.95;;;10.90;;
31782;SDS011;18351;47.560;9.708;2024-03-02T08:38:22;13.45;;;9.75;;
31782;SDS011;18351;47.560;9.708;2024-03-02T08:40:49;10.73;;;9.10;;
31782;SDS011;18351;47.560;9.708;2024-03-02T08:43:15;11.40;;;9.15;;
31782;SDS011;18351;47.560;9.708;2024-03-02T08:45:40;12.70;;;7.10;;
31782;SDS011;18351;47.560;9.708;2024-03-02T08:48:09;6.82;;;5.68;;
31782;SDS011;18351;47.560;9.708;2024-03-02T08:50:35;10.43;;;6.68;;
31782;SDS011;18351;47.560;9.708;2024-03-02T08:53:01;7.63;;;6.10;;
31782;SDS011;18351;47.560;9.708;2024-03-02T08:55:27;7.70;;;6.18;;
31782;SDS011;18351;47.560;9.708;2024-03-02T08:57:52;9.75;;;5.53;;
31782;SDS011;18351;47.560;9.708;2024-03-02T09:00:18;10.77;;;6.05;;
31782;SDS011;18351;47.560;9.708;2024-03-02T09:02:44;8.10;;;5.88;;
31782;SDS011;18351;47.560;9.708;2024-03-02T09:05:10;5.80;;;4.95;;
31782;SDS011;18351;47.560;9.708;2024-03-02T09:07:36;8.40;;;5.10;;
31782;SDS011;18351;47.560;9.708;2024-03-02T09:10:03;7.43;;;5.30;;
31782;SDS011;18351;47.560;9.708;2024-03-02T09:12:29;9.52;;;6.85;;
31782;SDS011;18351;47.560;9.708;2024-03-02T09:14:55;8.52;;;5.63;;
31782;SDS011;18351;47.560;9.708;2024-03-02T09:17:21;4.63;;;4.13;;
31782;SDS011;18351;47.560;9.708;2024-03-02T09:19:46;4.82;;;3.90;;
31782;SDS011;18351;47.560;9.708;2024-03-02T09:22:12;7.35;;;5.90;;
31782;SDS011;18351;47.560;9.708;2024-03-02T09:24:38;5.65;;;3.95;;
31782;SDS011;18351;47.560;9.708;2024-03-02T09:27:03;3.92;;;3.10;;
31782;SDS011;18351;47.560;9.708;2024-03-02T09:29:29;3.40;;;3.10;;
31782;SDS011;18351;47.560;9.708;2024-03-02T09:31:55;5.75;;;3.55;;
31782;SDS011;18351;47.560;9.708;2024-03-02T09:34:21;4.70;;;3.42;;
31782;SDS011;18351;47.560;9.708;2024-03-02T09:36:47;3.78;;;2.90;;
31782;SDS011;18351;47.560;9.708;2024-03-02T09:39:13;4.95;;;3.10;;
31782;SDS011;18351;47.560;9.708;2024-03-02T09:41:39;4.57;;;3.15;;
31782;SDS011;18351;47.560;9.708;2024-03-02T09:44:05;4.65;;;3.15;;
31782;SDS011;18351;47.560;9.708;2024-03-02T09:46:31;5.22;;;2.90;;
31782;SDS011;18351;47.560;9.708;2024-03-02T09:48:56;4.47;;;3.22;;
31782;SDS011;18351;47.560;9.708;2024-03-02T09:51:23;6.88;;;3.50;;
31782;SDS011;18351;47.560;9.708;2024-03-02T09:53:48;3.72;;;3.00;;
31782;SDS011;18351;47.560;9.708;2024-03-02T09:56:14;4.80;;;3.35;;
31782;SDS011;18351;47.560;9.708;2024-03-02T09:58:43;4.43;;;3.10;;
31782;SDS011;18351;47.560;9.708;2024-03-02T10:01:09;6.82;;;3.05;;
31782;SDS011;18351;47.560;9.708;2024-03-02T10:03:35;3.42;;;2.65;;
31782;SDS011;18351;47.560;9.708;2024-03-02T10:06:24;5.28;;;2.65;;
31782;SDS011;18351;47.560;9.708;2024-03-02T10:08:51;2.08;;;1.88;;
31782;SDS011;18351;47.560;9.708;2024-03-02T10:11:30;1.55;;;1.40;;
31782;SDS011;18351;47.560;9.708;2024-03-02T10:14:03;3.75;;;1.63;;
31782;SDS011;18351;47.560;9.708;2024-03-02T10:16:38;2.03;;;1.42;;
31782;SDS011;18351;47.560;9.708;2024-03-02T10:19:18;2.28;;;1.52;;
31782;SDS011;18351;47.560;9.708;2024-03-02T10:21:54;1.90;;;1.67;;
31782;SDS011;18351;47.560;9.708;2024-03-02T10:24:20;1.98;;;1.40;;
31782;SDS011;18351;47.560;9.708;2024-03-02T10:26:47;2.30;;;1.70;;
31782;SDS011;18351;47.560;9.708;2024-03-02T10:29:13;2.20;;;1.80;;
31782;SDS011;18351;47.560;9.708;2024-03-02T10:31:39;2.33;;;1.55;;
31782;SDS011;18351;47.560;9.708;2024-03-02T10:34:07;3.42;;;1.80;;
31782;SDS011;18351;47.560;9.708;2024-03-02T10:36:34;1.88;;;1.42;;
31782;SDS011;18351;47.560;9.708;2024-03-02T10:39:04;3.63;;;1.45;;
31782;SDS011;18351;47.560;9.708;2024-03-02T10:41:32;4.38;;;1.80;;
31782;SDS011;18351;47.560;9.708;2024-03-02T10:43:59;2.85;;;2.10;;
31782;SDS011;18351;47.560;9.708;2024-03-02T10:46:28;1.90;;;1.77;;
31782;SDS011;18351;47.560;9.708;2024-03-02T10:48:55;2.97;;;2.15;;
31782;SDS011;18351;47.560;9.708;2024-03-02T10:51:25;2.70;;;2.22;;
31782;SDS011;18351;47.560;9.708;2024-03-02T10:53:52;3.58;;;2.53;;
31782;SDS011;18351;47.560;9.708;2024-03-02T10:56:22;3.75;;;2.90;;
31782;SDS011;18351;47.560;9.708;2024-03-02T10:59:03;3.00;;;2.58;;
31782;SDS011;18351;47.560;9.708;2024-03-02T11:01:41;5.63;;;4.95;;
31782;SDS011;18351;47.560;9.708;2024-03-02T11:04:08;5.05;;;3.08;;
31782;SDS011;18351;47.560;9.708;2024-03-02T11:06:37;3.40;;;3.10;;
31782;SDS011;18351;47.560;9.708;2024-03-02T11:09:07;3.15;;;2.85;;
31782;SDS011;18351;47.560;9.708;2024-03-02T11:11:40;4.15;;;3.38;;
31782;SDS011;18351;47.560;9.708;2024-03-02T11:14:09;3.53;;;2.53;;
31782;SDS011;18351;47.560;9.708;2024-03-02T11:16:41;6.70;;;3.35;;
31782;SDS011;18351;47.560;9.708;2024-03-02T11:19:08;7.75;;;3.55;;
31782;SDS011;18351;47.560;9.708;2024-03-02T11:21:36;5.90;;;3.28;;
31782;SDS011;18351;47.560;9.708;2024-03-02T11:26:47;6.15;;;3.20;;
31782;SDS011;18351;47.560;9.708;2024-03-02T11:32:00;4.13;;;3.42;;
31782;SDS011;18351;47.560;9.708;2024-03-02T11:36:55;5.30;;;3.72;;
31782;SDS011;18351;47.560;9.708;2024-03-02T11:39:21;4.95;;;3.72;;
31782;SDS011;18351;47.560;9.708;2024-03-02T11:41:47;6.07;;;3.85;;
31782;SDS011;18351;47.560;9.708;2024-03-02T11:44:12;3.95;;;3.58;;
31782;SDS011;18351;47.560;9.708;2024-03-02T11:46:39;8.80;;;4.05;;
31782;SDS011;18351;47.560;9.708;2024-03-02T11:49:05;4.93;;;3.95;;
31782;SDS011;18351;47.560;9.708;2024-03-02T11:51:32;4.18;;;3.75;;
31782;SDS011;18351;47.560;9.708;2024-03-02T11:53:59;4.03;;;3.63;;
31782;SDS011;18351;47.560;9.708;2024-03-02T11:56:27;5.18;;;4.00;;
31782;SDS011;18351;47.560;9.708;2024-03-02T11:58:55;5.03;;;3.80;;
31782;SDS011;18351;47.560;9.708;2024-03-02T12:01:22;5.75;;;3.95;;
31782;SDS011;18351;47.560;9.708;2024-03-02T12:03:48;5.57;;;3.95;;
31782;SDS011;18351;47.560;9.708;2024-03-02T12:06:14;4.55;;;3.85;;
31782;SDS011;18351;47.560;9.708;2024-03-02T12:08:40;4.38;;;3.30;;
31782;SDS011;18351;47.560;9.708;2024-03-02T12:11:06;5.57;;;4.07;;
31782;SDS011;18351;47.560;9.708;2024-03-02T12:13:31;5.07;;;4.07;;
31782;SDS011;18351;47.560;9.708;2024-03-02T12:15:58;4.53;;;3.75;;
31782;SDS011;18351;47.560;9.708;2024-03-02T12:18:24;5.05;;;4.05;;
31782;SDS011;18351;47.560;9.708;2024-03-02T12:20:50;4.85;;;4.07;;
31782;SDS011;18351;47.560;9.708;2024-03-02T12:23:17;7.78;;;4.53;;
31782;SDS011;18351;47.560;9.708;2024-03-02T12:25:43;4.55;;;3.75;;
31782;SDS011;18351;47.560;9.708;2024-03-02T12:28:10;4.47;;;3.40;;
31782;SDS011;18351;47.560;9.708;2024-03-02T12:30:36;4.95;;;4.00;;
31782;SDS011;18351;47.560;9.708;2024-03-02T12:33:01;6.13;;;4.63;;
31782;SDS011;18351;47.560;9.708;2024-03-02T12:35:27;4.72;;;3.80;;
31782;SDS011;18351;47.560;9.708;2024-03-02T12:37:53;5.60;;;4.47;;
31782;SDS011;18351;47.560;9.708;2024-03-02T12:40:19;4.80;;;3.97;;
31782;SDS011;18351;47.560;9.708;2024-03-02T12:42:47;9.18;;;7.10;;
31782;SDS011;18351;47.560;9.708;2024-03-02T12:45:14;10.20;;;7.78;;
31782;SDS011;18351;47.560;9.708;2024-03-02T12:47:40;9.02;;;6.80;;
31782;SDS011;18351;47.560;9.708;2024-03-02T12:50:07;8.20;;;6.35;;
31782;SDS011;18351;47.560;9.708;2024-03-02T12:52:34;6.07;;;5.47;;
31782;SDS011;18351;47.560;9.708;2024-03-02T12:55:01;8.40;;;5.93;;
31782;SDS011;18351;47.560;9.708;2024-03-02T12:57:29;6.32;;;5.30;;
31782;SDS011;18351;47.560;9.708;2024-03-02T13:00:00;7.85;;;5.18;;
31782;SDS011;18351;47.560;9.708;2024-03-02T13:02:39;5.45;;;4.57;;
31782;SDS011;18351;47.560;9.708;2024-03-02T13:05:06;7.20;;;5.50;;
31782;SDS011;18351;47.560;9.708;2024-03-02T13:07:38;8.65;;;5.93;;
31782;SDS011;18351;47.560;9.708;2024-03-02T13:10:06;6.28;;;5.00;;
31782;SDS011;18351;47.560;9.708;2024-03-02T13:12:33;5.57;;;4.15;;
31782;SDS011;18351;47.560;9.708;2024-03-02T13:15:00;4.72;;;4.03;;
31782;SDS011;18351;47.560;9.708;2024-03-02T13:17:28;6.20;;;4.45;;
31782;SDS011;18351;47.560;9.708;2024-03-02T13:19:57;10.13;;;5.95;;
31782;SDS011;18351;47.560;9.708;2024-03-02T13:22:27;5.20;;;4.55;;
31782;SDS011;18351;47.560;9.708;2024-03-02T13:24:53;5.20;;;4.22;;
31782;SDS011;18351;47.560;9.708;2024-03-02T13:27:22;8.73;;;5.00;;
31782;SDS011;18351;47.560;9.708;2024-03-02T13:29:48;7.13;;;4.57;;
31782;SDS011;18351;47.560;9.708;2024-03-02T13:32:17;5.80;;;5.10;;
31782;SDS011;18351;47.560;9.708;2024-03-02T13:34:45;7.38;;;5.93;;
31782;SDS011;18351;47.560;9.708;2024-03-02T13:37:11;12.18;;;5.35;;
31782;SDS011;18351;47.560;9.708;2024-03-02T13:39:36;5.85;;;4.88;;
31782;SDS011;18351;47.560;9.708;2024-03-02T13:42:09;6.72;;;4.80;;
31782;SDS011;18351;47.560;9.708;2024-03-02T13:44:35;5.95;;;5.00;;
31782;SDS011;18351;47.560;9.708;2024-03-02T13:47:02;7.90;;;5.43;;
31782;SDS011;18351;47.560;9.708;2024-03-02T13:49:28;6.72;;;5.50;;
31782;SDS011;18351;47.560;9.708;2024-03-02T13:52:02;6.97;;;5.32;;
31782;SDS011;18351;47.560;9.708;2024-03-02T13:54:30;6.35;;;5.43;;
31782;SDS011;18351;47.560;9.708;2024-03-02T13:56:56;6.10;;;4.97;;
31782;SDS011;18351;47.560;9.708;2024-03-02T13:59:23;6.43;;;5.13;;
31782;SDS011;18351;47.560;9.708;2024-03-02T14:01:50;7.22;;;4.57;;
31782;SDS011;18351;47.560;9.708;2024-03-02T14:04:15;5.25;;;4.35;;
31782;SDS011;18351;47.560;9.708;2024-03-02T14:06:42;8.63;;;6.75;;
31782;SDS011;18351;47.560;9.708;2024-03-02T14:09:08;7.00;;;5.45;;
31782;SDS011;18351;47.560;9.708;2024-03-02T14:11:34;7.25;;;6.40;;
31782;SDS011;18351;47.560;9.708;2024-03-02T14:14:00;7.78;;;5.95;;
31782;SDS011;18351;47.560;9.708;2024-03-02T14:16:26;9.00;;;5.85;;
31782;SDS011;18351;47.560;9.708;2024-03-02T14:18:52;7.55;;;5.05;;
31782;SDS011;18351;47.560;9.708;2024-03-02T14:21:18;6.10;;;5.00;;
31782;SDS011;18351;47.560;9.708;2024-03-02T14:23:43;7.10;;;5.35;;
31782;SDS011;18351;47.560;9.708;2024-03-02T14:26:09;5.82;;;4.22;;
31782;SDS011;18351;47.560;9.708;2024-03-02T14:28:34;6.55;;;4.28;;
31782;SDS011;18351;47.560;9.708;2024-03-02T14:31:00;6.47;;;3.08;;
31782;SDS011;18351;47.560;9.708;2024-03-02T14:33:26;4.85;;;3.15;;
31782;SDS011;18351;47.560;9.708;2024-03-02T14:35:52;5.22;;;2.70;;
31782;SDS011;18351;47.560;9.708;2024-03-02T14:38:19;3.63;;;2.38;;